sensor_id;sensor_type;location;lat;lon;timestamp;pressure;altitude;pressure_sealevel;temperature;humidity
10310;BME280;5200;43.236;27.986;2022-09-19T00:00:44;99854.66;;;12.22;61.17
10310;BME280;5200;43.236;27.986;2022-09-19T00:03:12;99863.25;;;12.24;60.85
10310;BME280;5200;43.236;27.986;2022-09-19T00:05:40;99871.03;;;12.26;60.76
10310;BME280;5200;43.236;27.986;2022-09-19T00:08:07;99874.78;;;12.23;61.23
10310;BME280;5200;43.236;27.986;2022-09-19T00:10:38;99877.34;;;12.15;61.61
10310;BME280;5200;43.236;27.986;2022-09-19T00:13:05;99883.84;;;12.21;61.63
10310;BME280;5200;43.236;27.986;2022-09-19T00:15:36;99873.19;;;12.13;62.57
10310;BME280;5200;43.236;27.986;2022-09-19T00:18:03;99872.06;;;12.15;62.22
10310;BME280;5200;43.236;27.986;2022-09-19T00:20:30;99885.44;;;12.14;61.58
10310;BME280;5200;43.236;27.986;2022-09-19T00:22:59;99887.81;;;12.07;62.37
10310;BME280;5200;43.236;27.986;2022-09-19T00:25:43;99889.69;;;11.97;62.84
10310;BME280;5200;43.236;27.986;2022-09-19T00:28:10;99886.66;;;11.92;63.01
10310;BME280;5200;43.236;27.986;2022-09-19T00:30:39;99893.63;;;11.93;63.14
10310;BME280;5200;43.236;27.986;2022-09-19T00:33:06;99887.13;;;11.87;63.07
10310;BME280;5200;43.236;27.986;2022-09-19T00:35:33;99875.63;;;11.88;62.53
10310;BME280;5200;43.236;27.986;2022-09-19T00:37:59;99889.69;;;11.97;62.46
10310;BME280;5200;43.236;27.986;2022-09-19T00:40:26;99873.88;;;11.97;62.33
10310;BME280;5200;43.236;27.986;2022-09-19T00:42:53;99883.75;;;11.95;62.34
10310;BME280;5200;43.236;27.986;2022-09-19T00:45:20;99872.34;;;11.94;62.15
10310;BME280;5200;43.236;27.986;2022-09-19T00:47:50;99876.50;;;11.97;62.43
10310;BME280;5200;43.236;27.986;2022-09-19T00:50:22;99869.22;;;11.91;62.16
10310;BME280;5200;43.236;27.986;2022-09-19T00:52:53;99858.66;;;11.91;61.80
10310;BME280;5200;43.236;27.986;2022-09-19T00:55:21;99866.13;;;11.95;61.77
10310;BME280;5200;43.236;27.986;2022-09-19T00:57:59;99868.59;;;11.97;62.10
10310;BME280;5200;43.236;27.986;2022-09-19T01:00:27;99863.63;;;11.94;61.91
10310;BME280;5200;43.236;27.986;2022-09-19T01:02:56;99863.41;;;11.87;61.90
10310;BME280;5200;43.236;27.986;2022-09-19T01:05:28;99872.78;;;11.99;61.35
10310;BME280;5200;43.236;27.986;2022-09-19T01:08:12;99869.97;;;12.01;61.31
10310;BME280;5200;43.236;27.986;2022-09-19T01:10:54;99880.75;;;12.08;61.05
10310;BME280;5200;43.236;27.986;2022-09-19T01:13:26;99873.59;;;12.00;61.73
10310;BME280;5200;43.236;27.986;2022-09-19T01:16:03;99885.41;;;11.96;61.93
10310;BME280;5200;43.236;27.986;2022-09-19T01:18:35;99869.91;;;11.93;61.69
10310;BME280;5200;43.236;27.986;2022-09-19T01:21:16;99867.53;;;11.90;62.11
10310;BME280;5200;43.236;27.986;2022-09-19T01:24:24;99875.44;;;11.90;62.17
10310;BME280;5200;43.236;27.986;2022-09-19T01:27:18;99881.72;;;11.89;62.54
10310;BME280;5200;43.236;27.986;2022-09-19T01:29:51;99875.34;;;11.81;62.41
10310;BME280;5200;43.236;27.986;2022-09-19T01:32:22;99868.22;;;11.64;62.87
10310;BME280;5200;43.236;27.986;2022-09-19T01:34:53;99874.59;;;11.71;63.18
10310;BME280;5200;43.236;27.986;2022-09-19T01:37:31;99877.81;;;11.65;63.36
10310;BME280;5200;43.236;27.986;2022-09-19T01:40:02;99877.41;;;11.60;63.62
10310;BME280;5200;43.236;27.986;2022-09-19T01:42:30;99861.13;;;11.47;63.88
10310;BME280;5200;43.236;27.986;2022-09-19T01:44:58;99875.66;;;11.51;64.29
10310;BME280;5200;43.236;27.986;2022-09-19T01:47:33;99872.47;;;11.47;64.23
10310;BME280;5200;43.236;27.986;2022-09-19T01:50:06;99880.53;;;11.46;64.17
10310;BME280;5200;43.236;27.986;2022-09-19T01:52:46;99877.38;;;11.42;64.30
10310;BME280;5200;43.236;27.986;2022-09-19T01:55:22;99870.69;;;11.48;64.06
10310;BME280;5200;43.236;27.986;2022-09-19T01:57:58;99887.47;;;11.47;64.44
10310;BME280;5200;43.236;27.986;2022-09-19T02:00:32;99893.41;;;11.49;64.29
10310;BME280;5200;43.236;27.986;2022-09-19T02:03:16;99896.63;;;11.42;64.16
10310;BME280;5200;43.236;27.986;2022-09-19T02:05:52;99897.63;;;11.41;64.64
10310;BME280;5200;43.236;27.986;2022-09-19T02:08:26;99897.06;;;11.38;64.69
10310;BME280;5200;43.236;27.986;2022-09-19T02:10:57;99894.19;;;11.31;65.51
10310;BME280;5200;43.236;27.986;2022-09-19T02:13:31;99881.59;;;11.25;65.49
10310;BME280;5200;43.236;27.986;2022-09-19T02:16:05;99892.19;;;11.15;66.24
10310;BME280;5200;43.236;27.986;2022-09-19T02:18:36;99896.63;;;11.15;66.34
10310;BME280;5200;43.236;27.986;2022-09-19T02:21:07;99891.63;;;11.12;66.48
10310;BME280;5200;43.236;27.986;2022-09-19T02:23:39;99898.00;;;11.09;66.28
10310;BME280;5200;43.236;27.986;2022-09-19T02:26:14;99897.56;;;11.14;66.11
10310;BME280;5200;43.236;27.986;2022-09-19T02:28:45;99895.09;;;11.03;66.71
10310;BME280;5200;43.236;27.986;2022-09-19T02:31:16;99893.75;;;10.98;66.96
10310;BME280;5200;43.236;27.986;2022-09-19T02:33:45;99910.38;;;10.99;67.12
10310;BME280;5200;43.236;27.986;2022-09-19T02:36:16;99904.97;;;10.91;67.61
10310;BME280;5200;43.236;27.986;2022-09-19T02:38:51;99898.19;;;10.88;67.50
10310;BME280;5200;43.236;27.986;2022-09-19T02:41:25;99899.03;;;10.79;68.13
10310;BME280;5200;43.236;27.986;2022-09-19T02:43:59;99901.97;;;10.76;68.28
10310;BME280;5200;43.236;27.986;2022-09-19T02:46:35;99896.59;;;10.68;68.12
10310;BME280;5200;43.236;27.986;2022-09-19T02:49:08;99899.88;;;10.70;68.27
10310;BME280;5200;43.236;27.986;2022-09-19T02:51:42;99905.16;;;10.70;68.42
10310;BME280;5200;43.236;27.986;2022-09-19T02:54:14;99900.19;;;10.67;68.61
10310;BME280;5200;43.236;27.986;2022-09-19T02:56:44;99902.28;;;10.63;68.81
10310;BME280;5200;43.236;27.986;2022-09-19T02:59:16;99896.34;;;10.51;69.15
10310;BME280;5200;43.236;27.986;2022-09-19T03:01:50;99908.50;;;10.52;69.64
10310;BME280;5200;43.236;27.986;2022-09-19T03:04:22;99920.28;;;10.48;69.51
10310;BME280;5200;43.236;27.986;2022-09-19T03:06:55;99902.16;;;10.45;69.78
10310;BME280;5200;43.236;27.986;2022-09-19T03:09:28;99904.34;;;10.50;69.43
10310;BME280;5200;43.236;27.986;2022-09-19T03:12:00;99894.94;;;10.47;68.96
10310;BME280;5200;43.236;27.986;2022-09-19T03:14:29;99898.13;;;10.61;68.51
10310;BME280;5200;43.236;27.986;2022-09-19T03:17:00;99901.28;;;10.74;67.71
10310;BME280;5200;43.236;27.986;2022-09-19T03:19:27;99911.78;;;10.84;66.78
10310;BME280;5200;43.236;27.986;2022-09-19T03:21:56;99907.88;;;10.97;66.39
10310;BME280;5200;43.236;27.986;2022-09-19T03:24:24;99910.34;;;11.09;65.18
10310;BME280;5200;43.236;27.986;2022-09-19T03:26:52;99905.34;;;11.15;65.20
10310;BME280;5200;43.236;27.986;2022-09-19T03:29:19;99890.38;;;11.16;64.75
10310;BME280;5200;43.236;27.986;2022-09-19T03:31:46;99899.47;;;11.21;64.32
10310;BME280;5200;43.236;27.986;2022-09-19T03:34:17;99899.22;;;11.25;64.59
10310;BME280;5200;43.236;27.986;2022-09-19T03:36:45;99884.97;;;11.17;64.22
10310;BME280;5200;43.236;27.986;2022-09-19T03:39:12;99891.31;;;11.25;63.85
10310;BME280;5200;43.236;27.986;2022-09-19T03:41:39;99877.06;;;11.17;63.56
10310;BME280;5200;43.236;27.986;2022-09-19T03:44:06;99901.13;;;11.32;63.60
10310;BME280;5200;43.236;27.986;2022-09-19T03:46:33;99889.91;;;11.30;64.23
10310;BME280;5200;43.236;27.986;2022-09-19T03:49:01;99905.25;;;11.35;63.57
10310;BME280;5200;43.236;27.986;2022-09-19T03:51:31;99907.91;;;11.35;63.36
10310;BME280;5200;43.236;27.986;2022-09-19T03:53:59;99906.09;;;11.35;63.59
10310;BME280;5200;43.236;27.986;2022-09-19T03:56:26;99898.19;;;11.35;63.54
10310;BME280;5200;43.236;27.986;2022-09-19T03:58:53;99900.81;;;11.35;64.07
10310;BME280;5200;43.236;27.986;2022-09-19T04:01:19;99898.47;;;11.32;64.42
10310;BME280;5200;43.236;27.986;2022-09-19T04:03:46;99892.22;;;11.33;63.71
10310;BME280;5200;43.236;27.986;2022-09-19T04:06:14;99886.38;;;11.39;63.70
10310;BME280;5200;43.236;27.986;2022-09-19T04:08:42;99902.41;;;11.56;63.50
10310;BME280;5200;43.236;27.986;2022-09-19T04:11:09;99866.78;;;11.52;62.83
10310;BME280;5200;43.236;27.986;2022-09-19T04:13:36;99897.38;;;11.80;61.92
10310;BME280;5200;43.236;27.986;2022-09-19T04:16:05;99906.88;;;12.01;61.56
10310;BME280;5200;43.236;27.986;2022-09-19T04:18:32;99916.38;;;12.12;61.39
10310;BME280;5200;43.236;27.986;2022-09-19T04:21:00;99906.88;;;12.37;60.97
10310;BME280;5200;43.236;27.986;2022-09-19T04:23:28;99881.50;;;12.36;60.23
10310;BME280;5200;43.236;27.986;2022-09-19T04:25:57;99902.28;;;12.57;60.05
10310;BME280;5200;43.236;27.986;2022-09-19T04:28:25;99902.13;;;12.58;59.42
10310;BME280;5200;43.236;27.986;2022-09-19T04:30:52;99908.19;;;12.77;59.34
10310;BME280;5200;43.236;27.986;2022-09-19T04:33:20;99871.22;;;12.77;59.19
10310;BME280;5200;43.236;27.986;2022-09-19T04:35:50;99915.44;;;13.27;57.89
10310;BME280;5200;43.236;27.986;2022-09-19T04:38:17;99913.88;;;13.42;56.73
10310;BME280;5200;43.236;27.986;2022-09-19T04:40:46;99904.03;;;13.52;56.04
10310;BME280;5200;43.236;27.986;2022-09-19T04:43:16;99912.88;;;13.78;55.64
10310;BME280;5200;43.236;27.986;2022-09-19T04:45:44;99922.03;;;14.00;55.35
10310;BME280;5200;43.236;27.986;2022-09-19T04:48:14;99947.56;;;14.33;54.29
10310;BME280;5200;43.236;27.986;2022-09-19T04:50:40;99955.56;;;14.66;53.88
10310;BME280;5200;43.236;27.986;2022-09-19T04:53:09;99954.22;;;14.78;53.17
10310;BME280;5200;43.236;27.986;2022-09-19T04:55:39;99939.50;;;14.84;52.55
10310;BME280;5200;43.236;27.986;2022-09-19T04:58:06;99960.97;;;15.22;52.36
10310;BME280;5200;43.236;27.986;2022-09-19T05:00:34;99952.31;;;15.36;51.77
10310;BME280;5200;43.236;27.986;2022-09-19T05:03:06;99931.78;;;15.30;50.67
10310;BME280;5200;43.236;27.986;2022-09-19T05:05:37;99938.25;;;15.36;50.15
10310;BME280;5200;43.236;27.986;2022-09-19T05:08:05;99965.16;;;15.64;50.43
10310;BME280;5200;43.236;27.986;2022-09-19T05:10:33;99960.44;;;15.91;50.24
10310;BME280;5200;43.236;27.986;2022-09-19T05:13:00;99939.06;;;15.84;49.45
10310;BME280;5200;43.236;27.986;2022-09-19T05:15:26;99966.13;;;16.11;48.63
10310;BME280;5200;43.236;27.986;2022-09-19T05:17:55;99950.84;;;16.13;48.69
10310;BME280;5200;43.236;27.986;2022-09-19T05:20:23;99960.53;;;16.37;48.40
10310;BME280;5200;43.236;27.986;2022-09-19T05:22:53;99965.88;;;16.52;48.05
10310;BME280;5200;43.236;27.986;2022-09-19T05:25:22;99956.66;;;16.62;47.50
10310;BME280;5200;43.236;27.986;2022-09-19T05:27:48;99956.50;;;16.64;47.18
10310;BME280;5200;43.236;27.986;2022-09-19T05:30:16;99962.91;;;16.69;47.15
10310;BME280;5200;43.236;27.986;2022-09-19T05:32:44;99961.69;;;16.80;46.88
10310;BME280;5200;43.236;27.986;2022-09-19T05:35:13;99966.22;;;16.95;46.22
10310;BME280;5200;43.236;27.986;2022-09-19T05:37:41;99957.16;;;17.04;46.08
10310;BME280;5200;43.236;27.986;2022-09-19T05:40:08;99965.09;;;17.27;45.61
10310;BME280;5200;43.236;27.986;2022-09-19T05:42:39;99968.00;;;17.47;44.76
10310;BME280;5200;43.236;27.986;2022-09-19T05:45:07;99956.28;;;17.56;44.62
10310;BME280;5200;43.236;27.986;2022-09-19T05:47:34;99958.56;;;17.74;44.24
10310;BME280;5200;43.236;27.986;2022-09-19T05:50:05;99975.19;;;17.76;44.23
10310;BME280;5200;43.236;27.986;2022-09-19T05:52:35;99971.97;;;17.95;44.04
10310;BME280;5200;43.236;27.986;2022-09-19T05:55:19;99976.03;;;18.28;43.70
10310;BME280;5200;43.236;27.986;2022-09-19T05:57:49;99972.97;;;18.52;43.23
10310;BME280;5200;43.236;27.986;2022-09-19T06:00:17;99978.22;;;18.82;41.98
10310;BME280;5200;43.236;27.986;2022-09-19T06:02:44;99974.81;;;18.95;41.41
10310;BME280;5200;43.236;27.986;2022-09-19T06:05:11;99979.81;;;19.05;41.38
10310;BME280;5200;43.236;27.986;2022-09-19T06:07:40;99984.22;;;19.19;41.09
10310;BME280;5200;43.236;27.986;2022-09-19T06:10:07;99974.47;;;19.26;40.41
10310;BME280;5200;43.236;27.986;2022-09-19T06:12:34;99978.75;;;19.27;40.25
10310;BME280;5200;43.236;27.986;2022-09-19T06:15:01;99971.63;;;19.34;40.15
10310;BME280;5200;43.236;27.986;2022-09-19T06:17:28;99979.09;;;19.46;39.23
10310;BME280;5200;43.236;27.986;2022-09-19T06:19:55;99973.75;;;19.46;39.38
10310;BME280;5200;43.236;27.986;2022-09-19T06:22:22;99979.47;;;19.42;39.37
10310;BME280;5200;43.236;27.986;2022-09-19T06:24:50;99991.84;;;19.50;39.99
10310;BME280;5200;43.236;27.986;2022-09-19T06:27:17;99989.16;;;19.78;39.30
10310;BME280;5200;43.236;27.986;2022-09-19T06:29:44;99989.69;;;20.09;38.38
10310;BME280;5200;43.236;27.986;2022-09-19T06:32:11;99998.03;;;19.99;38.09
10310;BME280;5200;43.236;27.986;2022-09-19T06:34:38;99997.91;;;20.14;38.45
10310;BME280;5200;43.236;27.986;2022-09-19T06:37:05;100005.75;;;20.28;37.81
10310;BME280;5200;43.236;27.986;2022-09-19T06:39:32;100001.91;;;20.44;37.24
10310;BME280;5200;43.236;27.986;2022-09-19T06:42:00;99998.91;;;20.67;37.60
10310;BME280;5200;43.236;27.986;2022-09-19T06:44:27;99989.22;;;20.66;36.86
10310;BME280;5200;43.236;27.986;2022-09-19T06:46:55;99996.41;;;20.59;36.45
10310;BME280;5200;43.236;27.986;2022-09-19T06:49:23;100002.59;;;20.66;37.13
10310;BME280;5200;43.236;27.986;2022-09-19T06:51:50;99999.31;;;20.78;37.34
10310;BME280;5200;43.236;27.986;2022-09-19T06:54:17;99993.97;;;20.91;36.49
10310;BME280;5200;43.236;27.986;2022-09-19T06:56:44;99993.56;;;20.87;36.18
10310;BME280;5200;43.236;27.986;2022-09-19T06:59:12;100003.03;;;20.97;35.72
10310;BME280;5200;43.236;27.986;2022-09-19T07:01:39;99999.13;;;21.13;35.74
10310;BME280;5200;43.236;27.986;2022-09-19T07:04:06;99999.75;;;21.21;35.57
10310;BME280;5200;43.236;27.986;2022-09-19T07:06:33;99997.03;;;21.41;35.06
10310;BME280;5200;43.236;27.986;2022-09-19T07:09:01;99990.81;;;21.61;33.05
10310;BME280;5200;43.236;27.986;2022-09-19T07:11:28;99996.00;;;21.49;33.31
10310;BME280;5200;43.236;27.986;2022-09-19T07:13:55;99994.75;;;21.51;33.67
10310;BME280;5200;43.236;27.986;2022-09-19T07:16:23;99999.28;;;21.58;32.04
10310;BME280;5200;43.236;27.986;2022-09-19T07:18:50;99997.22;;;21.53;32.29
10310;BME280;5200;43.236;27.986;2022-09-19T07:21:17;99986.09;;;21.63;31.71
10310;BME280;5200;43.236;27.986;2022-09-19T07:23:44;99998.78;;;21.87;32.33
10310;BME280;5200;43.236;27.986;2022-09-19T07:26:13;99997.84;;;22.13;31.73
10310;BME280;5200;43.236;27.986;2022-09-19T07:28:40;99996.34;;;22.31;31.61
10310;BME280;5200;43.236;27.986;2022-09-19T07:31:07;99999.22;;;22.29;30.30
10310;BME280;5200;43.236;27.986;2022-09-19T07:33:35;99986.53;;;22.11;29.90
10310;BME280;5200;43.236;27.986;2022-09-19T07:36:02;99994.19;;;22.01;30.19
10310;BME280;5200;43.236;27.986;2022-09-19T07:38:32;99987.16;;;22.07;30.86
10310;BME280;5200;43.236;27.986;2022-09-19T07:41:00;99994.16;;;22.08;30.75
10310;BME280;5200;43.236;27.986;2022-09-19T07:43:27;99997.44;;;22.10;31.04
10310;BME280;5200;43.236;27.986;2022-09-19T07:45:53;99996.16;;;22.19;30.59
10310;BME280;5200;43.236;27.986;2022-09-19T07:48:21;99996.91;;;22.40;29.70
10310;BME280;5200;43.236;27.986;2022-09-19T07:50:49;99999.75;;;22.45;27.58
10310;BME280;5200;43.236;27.986;2022-09-19T07:53:18;99998.91;;;22.51;28.13
10310;BME280;5200;43.236;27.986;2022-09-19T07:55:48;99991.84;;;22.56;28.82
10310;BME280;5200;43.236;27.986;2022-09-19T07:58:18;99981.34;;;22.55;26.93
10310;BME280;5200;43.236;27.986;2022-09-19T08:00:45;99981.41;;;22.48;26.84
10310;BME280;5200;43.236;27.986;2022-09-19T08:03:14;99976.75;;;22.62;27.42
10310;BME280;5200;43.236;27.986;2022-09-19T08:05:44;99975.63;;;22.76;24.86
10310;BME280;5200;43.236;27.986;2022-09-19T08:08:14;99971.47;;;22.80;25.42
10310;BME280;5200;43.236;27.986;2022-09-19T08:10:41;99970.03;;;22.78;25.53
10310;BME280;5200;43.236;27.986;2022-09-19T08:13:10;99974.69;;;22.89;26.42
10310;BME280;5200;43.236;27.986;2022-09-19T08:15:38;99967.25;;;23.16;27.58
10310;BME280;5200;43.236;27.986;2022-09-19T08:18:06;99962.50;;;23.37;27.80
10310;BME280;5200;43.236;27.986;2022-09-19T08:20:35;99958.63;;;23.51;27.83
10310;BME280;5200;43.236;27.986;2022-09-19T08:23:04;99959.69;;;23.69;27.88
10310;BME280;5200;43.236;27.986;2022-09-19T08:25:34;99964.91;;;23.82;27.37
10310;BME280;5200;43.236;27.986;2022-09-19T08:28:02;99967.31;;;23.90;27.56
10310;BME280;5200;43.236;27.986;2022-09-19T08:30:31;99954.22;;;23.94;27.05
10310;BME280;5200;43.236;27.986;2022-09-19T08:32:58;99963.22;;;23.88;26.86
10310;BME280;5200;43.236;27.986;2022-09-19T08:35:26;99954.91;;;23.89;25.92
10310;BME280;5200;43.236;27.986;2022-09-19T08:37:54;99953.41;;;23.93;25.74
10310;BME280;5200;43.236;27.986;2022-09-19T08:40:25;99949.25;;;23.97;25.33
10310;BME280;5200;43.236;27.986;2022-09-19T08:43:01;99945.34;;;23.93;25.17
10310;BME280;5200;43.236;27.986;2022-09-19T08:45:51;99946.16;;;23.94;26.03
10310;BME280;5200;43.236;27.986;2022-09-19T08:48:24;99947.69;;;23.90;26.60
10310;BME280;5200;43.236;27.986;2022-09-19T08:50:56;99944.31;;;23.94;25.68
10310;BME280;5200;43.236;27.986;2022-09-19T08:53:28;99934.69;;;23.87;25.87
10310;BME280;5200;43.236;27.986;2022-09-19T08:55:58;99941.91;;;24.04;26.05
10310;BME280;5200;43.236;27.986;2022-09-19T08:58:30;99944.47;;;23.99;25.58
10310;BME280;5200;43.236;27.986;2022-09-19T09:01:01;99947.16;;;23.99;25.98
10310;BME280;5200;43.236;27.986;2022-09-19T09:03:37;99933.38;;;24.08;26.33
10310;BME280;5200;43.236;27.986;2022-09-19T09:06:17;99941.78;;;24.30;26.81
10310;BME280;5200;43.236;27.986;2022-09-19T09:08:56;99933.25;;;24.44;26.55
10310;BME280;5200;43.236;27.986;2022-09-19T09:11:34;99924.75;;;24.47;26.37
10310;BME280;5200;43.236;27.986;2022-09-19T09:14:16;99924.78;;;24.59;26.65
10310;BME280;5200;43.236;27.986;2022-09-19T09:16:58;99923.16;;;24.70;26.69
10310;BME280;5200;43.236;27.986;2022-09-19T09:19:41;99918.38;;;24.72;27.22
10310;BME280;5200;43.236;27.986;2022-09-19T09:22:21;99912.53;;;24.75;26.75
10310;BME280;5200;43.236;27.986;2022-09-19T09:24:56;99914.97;;;24.65;25.46
10310;BME280;5200;43.236;27.986;2022-09-19T09:27:30;99906.94;;;24.35;26.67
10310;BME280;5200;43.236;27.986;2022-09-19T09:30:08;99909.38;;;24.36;27.18
10310;BME280;5200;43.236;27.986;2022-09-19T09:32:40;99911.38;;;24.41;26.41
10310;BME280;5200;43.236;27.986;2022-09-19T09:35:13;99897.88;;;24.47;26.01
10310;BME280;5200;43.236;27.986;2022-09-19T09:37:47;99903.78;;;24.38;26.02
10310;BME280;5200;43.236;27.986;2022-09-19T09:40:36;99903.28;;;24.29;27.66
10310;BME280;5200;43.236;27.986;2022-09-19T09:43:24;99903.09;;;24.42;26.96
10310;BME280;5200;43.236;27.986;2022-09-19T09:45:54;99899.47;;;24.37;26.71
10310;BME280;5200;43.236;27.986;2022-09-19T09:48:28;99896.28;;;24.28;27.48
10310;BME280;5200;43.236;27.986;2022-09-19T09:51:08;99895.69;;;24.26;25.66
10310;BME280;5200;43.236;27.986;2022-09-19T09:53:49;99881.41;;;24.14;26.02
10310;BME280;5200;43.236;27.986;2022-09-19T09:56:24;99894.97;;;24.19;26.82
10310;BME280;5200;43.236;27.986;2022-09-19T09:58:59;99881.22;;;24.27;27.23
10310;BME280;5200;43.236;27.986;2022-09-19T10:01:39;99876.56;;;24.34;26.45
10310;BME280;5200;43.236;27.986;2022-09-19T10:04:29;99882.47;;;24.24;27.12
10310;BME280;5200;43.236;27.986;2022-09-19T10:07:15;99889.00;;;24.17;27.02
10310;BME280;5200;43.236;27.986;2022-09-19T10:09:48;99880.63;;;24.25;25.74
10310;BME280;5200;43.236;27.986;2022-09-19T10:12:20;99884.03;;;24.32;26.64
10310;BME280;5200;43.236;27.986;2022-09-19T10:14:51;99885.44;;;24.35;25.89
10310;BME280;5200;43.236;27.986;2022-09-19T10:17:22;99879.25;;;24.34;25.12
10310;BME280;5200;43.236;27.986;2022-09-19T10:19:54;99884.94;;;24.26;26.55
10310;BME280;5200;43.236;27.986;2022-09-19T10:22:23;99874.91;;;23.91;28.10
10310;BME280;5200;43.236;27.986;2022-09-19T10:24:52;99881.81;;;23.69;28.48
10310;BME280;5200;43.236;27.986;2022-09-19T10:27:23;99870.34;;;23.61;28.09
10310;BME280;5200;43.236;27.986;2022-09-19T10:29:56;99877.50;;;23.49;28.29
10310;BME280;5200;43.236;27.986;2022-09-19T10:32:28;99875.59;;;23.38;28.69
10310;BME280;5200;43.236;27.986;2022-09-19T10:34:59;99877.66;;;23.36;28.10
10310;BME280;5200;43.236;27.986;2022-09-19T10:37:26;99866.63;;;23.26;29.84
10310;BME280;5200;43.236;27.986;2022-09-19T10:39:59;99878.84;;;23.03;31.64
10310;BME280;5200;43.236;27.986;2022-09-19T10:42:32;99884.00;;;22.79;33.77
10310;BME280;5200;43.236;27.986;2022-09-19T10:45:13;99881.28;;;22.61;34.05
10310;BME280;5200;43.236;27.986;2022-09-19T10:47:42;99870.09;;;22.64;32.63
10310;BME280;5200;43.236;27.986;2022-09-19T10:50:13;99868.94;;;22.60;32.18
10310;BME280;5200;43.236;27.986;2022-09-19T10:52:41;99871.53;;;22.67;32.90
10310;BME280;5200;43.236;27.986;2022-09-19T10:55:13;99880.66;;;22.59;32.11
10310;BME280;5200;43.236;27.986;2022-09-19T10:57:43;99870.03;;;22.46;32.21
10310;BME280;5200;43.236;27.986;2022-09-19T11:00:23;99868.72;;;22.36;32.32
10310;BME280;5200;43.236;27.986;2022-09-19T11:02:56;99862.66;;;22.41;32.98
10310;BME280;5200;43.236;27.986;2022-09-19T11:05:25;99863.75;;;22.33;33.25
10310;BME280;5200;43.236;27.986;2022-09-19T11:07:53;99860.38;;;22.45;33.15
10310;BME280;5200;43.236;27.986;2022-09-19T11:10:34;99850.41;;;22.52;32.48
10310;BME280;5200;43.236;27.986;2022-09-19T11:13:10;99859.44;;;22.57;32.66
10310;BME280;5200;43.236;27.986;2022-09-19T11:15:54;99863.00;;;22.51;34.74
10310;BME280;5200;43.236;27.986;2022-09-19T11:18:33;99859.88;;;22.29;34.47
10310;BME280;5200;43.236;27.986;2022-09-19T11:21:07;99851.13;;;22.09;33.41
10310;BME280;5200;43.236;27.986;2022-09-19T11:23:55;99846.91;;;21.94;32.50
10310;BME280;5200;43.236;27.986;2022-09-19T11:26:33;99850.88;;;21.85;32.96
10310;BME280;5200;43.236;27.986;2022-09-19T11:29:13;99847.25;;;21.73;33.23
10310;BME280;5200;43.236;27.986;2022-09-19T11:31:56;99848.94;;;21.61;33.33
10310;BME280;5200;43.236;27.986;2022-09-19T11:34:38;99858.94;;;21.40;34.32
10310;BME280;5200;43.236;27.986;2022-09-19T11:37:18;99848.47;;;21.19;35.42
10310;BME280;5200;43.236;27.986;2022-09-19T11:40:00;99839.59;;;21.25;36.40
10310;BME280;5200;43.236;27.986;2022-09-19T11:42:35;99856.09;;;21.22;37.71
10310;BME280;5200;43.236;27.986;2022-09-19T11:45:13;99842.94;;;21.07;39.18
10310;BME280;5200;43.236;27.986;2022-09-19T11:48:08;99834.91;;;21.07;40.11
10310;BME280;5200;43.236;27.986;2022-09-19T11:50:50;99832.69;;;20.97;39.76
10310;BME280;5200;43.236;27.986;2022-09-19T11:53:35;99832.31;;;20.87;40.16
10310;BME280;5200;43.236;27.986;2022-09-19T11:56:20;99838.09;;;20.71;41.56
10310;BME280;5200;43.236;27.986;2022-09-19T11:58:57;99841.81;;;20.69;41.83
10310;BME280;5200;43.236;27.986;2022-09-19T12:01:36;99838.47;;;20.74;41.42
10310;BME280;5200;43.236;27.986;2022-09-19T12:04:18;99839.53;;;20.73;42.50
10310;BME280;5200;43.236;27.986;2022-09-19T12:07:02;99841.75;;;20.83;43.86
10310;BME280;5200;43.236;27.986;2022-09-19T12:09:36;99840.16;;;20.68;42.01
10310;BME280;5200;43.236;27.986;2022-09-19T12:12:10;99838.91;;;20.51;43.32
10310;BME280;5200;43.236;27.986;2022-09-19T12:14:41;99834.38;;;20.45;43.64
10310;BME280;5200;43.236;27.986;2022-09-19T12:17:13;99826.16;;;20.40;43.44
10310;BME280;5200;43.236;27.986;2022-09-19T12:19:46;99831.91;;;20.23;42.76
10310;BME280;5200;43.236;27.986;2022-09-19T12:22:18;99830.25;;;20.09;43.33
10310;BME280;5200;43.236;27.986;2022-09-19T12:24:49;99832.09;;;20.02;43.29
10310;BME280;5200;43.236;27.986;2022-09-19T12:27:27;99834.75;;;19.95;43.37
10310;BME280;5200;43.236;27.986;2022-09-19T12:30:00;99835.16;;;19.85;44.54
10310;BME280;5200;43.236;27.986;2022-09-19T12:32:36;99836.78;;;19.87;46.35
10310;BME280;5200;43.236;27.986;2022-09-19T12:35:14;99831.25;;;19.88;47.61
10310;BME280;5200;43.236;27.986;2022-09-19T12:37:54;99825.47;;;19.71;48.22
10310;BME280;5200;43.236;27.986;2022-09-19T12:40:28;99826.47;;;19.70;47.87
10310;BME280;5200;43.236;27.986;2022-09-19T12:43:02;99818.22;;;19.65;47.24
10310;BME280;5200;43.236;27.986;2022-09-19T12:45:42;99814.50;;;19.53;47.30
10310;BME280;5200;43.236;27.986;2022-09-19T12:48:14;99818.53;;;19.35;47.15
10310;BME280;5200;43.236;27.986;2022-09-19T12:50:49;99822.22;;;19.28;47.63
10310;BME280;5200;43.236;27.986;2022-09-19T12:53:28;99815.63;;;19.17;48.19
10310;BME280;5200;43.236;27.986;2022-09-19T12:56:04;99818.28;;;19.17;47.99
10310;BME280;5200;43.236;27.986;2022-09-19T12:58:36;99815.84;;;19.22;47.75
10310;BME280;5200;43.236;27.986;2022-09-19T13:01:14;99818.91;;;19.26;47.94
10310;BME280;5200;43.236;27.986;2022-09-19T13:03:47;99808.69;;;19.29;48.04
10310;BME280;5200;43.236;27.986;2022-09-19T13:06:19;99814.03;;;19.36;46.67
10310;BME280;5200;43.236;27.986;2022-09-19T13:08:54;99817.69;;;19.28;45.88
10310;BME280;5200;43.236;27.986;2022-09-19T13:11:27;99816.44;;;19.17;46.85
10310;BME280;5200;43.236;27.986;2022-09-19T13:14:01;99818.50;;;19.22;45.88
10310;BME280;5200;43.236;27.986;2022-09-19T13:16:33;99814.97;;;19.15;46.50
10310;BME280;5200;43.236;27.986;2022-09-19T13:19:24;99818.88;;;19.19;46.92
10310;BME280;5200;43.236;27.986;2022-09-19T13:22:10;99809.88;;;19.20;47.30
10310;BME280;5200;43.236;27.986;2022-09-19T13:24:56;99824.22;;;19.19;46.19